Ormond, Louisiana
Current Conditions -  °F | °C
As of 3:53 PM on Monday 20 Oct 2014 (Local Time) from KMSY Reporting Station
Scattered Clouds Scattered Clouds  
Wind Chill: 77°   Ceiling: Unl
Heat Index: 78°   Visibility: 10mi
Dew Point: 54°   Wind: 6mph
Humidity: 45%   Direction: 30°NNE
Pressure: 29.99"   Gusts: NA
Location:  29.9844°N, 90.363°W
Report Text: KMSY 202053Z 03005KT 10SM FEW045 FEW180 SCT250 25/12 A2999 RMK AO2 SLP159 T02500122 56016
Loading
Personal Weather Stations






























Interactive Weather Map
Tropical Storm Tracking
New forecast layout! Learn more

10-Day Weather Forecast

Advertisements
Track Severe Weather on mobile